Terminal Aerodrome Forecast
Issued by NWS Mobile, AL

Home | Current Version | Previous Version | Text Only | Print | Product List | Glossary On
Versions: 1 2 3 4 5 6 7 8 9 10 11 12 13 14 15 16 17 18 19 20 21 22 23 24 25 26
000
FTUS44 KMOB 020536
TAFMOB
TAF
KMOB 020536Z 0206/0306 16005KT P6SM FEW100 BKN200
     FM021000 16003KT 5SM BR FEW007 BKN200
     FM021400 16010KT P6SM SCT015 BKN150
     FM021700 16016G24KT P6SM FEW040 FEW250=

USA.gov is the U.S. government's official web portal to all federal, state and local government web resources and services.